sensor_id;sensor_type;location;lat;lon;timestamp;temperature;humidity
4687;DHT22;2357;47.316;-1.348;2023-06-22T00:02:14;22.90;99.90
4687;DHT22;2357;47.316;-1.348;2023-06-22T00:04:40;22.90;99.90
4687;DHT22;2357;47.316;-1.348;2023-06-22T00:07:05;22.80;99.90
4687;DHT22;2357;47.316;-1.348;2023-06-22T00:09:31;22.80;99.90
4687;DHT22;2357;47.316;-1.348;2023-06-22T00:11:57;22.80;99.90
4687;DHT22;2357;47.316;-1.348;2023-06-22T00:14:23;22.80;99.90
4687;DHT22;2357;47.316;-1.348;2023-06-22T00:16:49;22.80;99.90
4687;DHT22;2357;47.316;-1.348;2023-06-22T00:19:15;22.90;99.90
4687;DHT22;2357;47.316;-1.348;2023-06-22T00:21:41;22.80;99.90
4687;DHT22;2357;47.316;-1.348;2023-06-22T00:24:08;22.70;99.90
4687;DHT22;2357;47.316;-1.348;2023-06-22T00:26:34;22.70;99.90
4687;DHT22;2357;47.316;-1.348;2023-06-22T00:28:59;22.70;99.90
4687;DHT22;2357;47.316;-1.348;2023-06-22T00:31:25;22.70;99.90
4687;DHT22;2357;47.316;-1.348;2023-06-22T00:33:51;22.60;99.90
4687;DHT22;2357;47.316;-1.348;2023-06-22T00:36:16;22.60;99.90
4687;DHT22;2357;47.316;-1.348;2023-06-22T00:38:43;22.60;99.90
4687;DHT22;2357;47.316;-1.348;2023-06-22T00:41:09;22.60;99.90
4687;DHT22;2357;47.316;-1.348;2023-06-22T00:43:35;22.60;99.90
4687;DHT22;2357;47.316;-1.348;2023-06-22T00:46:00;22.40;99.90
4687;DHT22;2357;47.316;-1.348;2023-06-22T00:48:26;22.40;99.90
4687;DHT22;2357;47.316;-1.348;2023-06-22T00:50:52;22.40;99.90
4687;DHT22;2357;47.316;-1.348;2023-06-22T00:53:21;22.40;99.90
4687;DHT22;2357;47.316;-1.348;2023-06-22T00:55:47;22.40;99.90
4687;DHT22;2357;47.316;-1.348;2023-06-22T00:58:13;22.40;99.90
4687;DHT22;2357;47.316;-1.348;2023-06-22T01:00:40;22.20;99.90
4687;DHT22;2357;47.316;-1.348;2023-06-22T01:03:06;22.20;99.90
4687;DHT22;2357;47.316;-1.348;2023-06-22T01:05:35;22.30;99.90
4687;DHT22;2357;47.316;-1.348;2023-06-22T01:08:26;22.30;99.90
4687;DHT22;2357;47.316;-1.348;2023-06-22T01:11:05;22.40;99.90
4687;DHT22;2357;47.316;-1.348;2023-06-22T01:16:14;22.30;99.90
4687;DHT22;2357;47.316;-1.348;2023-06-22T01:18:43;22.30;99.90
4687;DHT22;2357;47.316;-1.348;2023-06-22T01:21:14;22.30;99.90
4687;DHT22;2357;47.316;-1.348;2023-06-22T01:29:21;22.30;99.90
4687;DHT22;2357;47.316;-1.348;2023-06-22T01:31:49;22.30;99.90
4687;DHT22;2357;47.316;-1.348;2023-06-22T01:34:16;22.30;99.90
4687;DHT22;2357;47.316;-1.348;2023-06-22T01:36:43;22.20;99.90
4687;DHT22;2357;47.316;-1.348;2023-06-22T01:39:09;22.20;99.90
4687;DHT22;2357;47.316;-1.348;2023-06-22T01:41:38;22.20;99.90
4687;DHT22;2357;47.316;-1.348;2023-06-22T01:44:05;22.10;99.90
4687;DHT22;2357;47.316;-1.348;2023-06-22T01:46:35;22.10;99.90
4687;DHT22;2357;47.316;-1.348;2023-06-22T01:49:02;22.10;99.90
4687;DHT22;2357;47.316;-1.348;2023-06-22T01:51:29;22.00;99.90
4687;DHT22;2357;47.316;-1.348;2023-06-22T01:53:55;21.90;99.90
4687;DHT22;2357;47.316;-1.348;2023-06-22T01:56:21;21.90;99.90
4687;DHT22;2357;47.316;-1.348;2023-06-22T01:59:14;21.90;99.90
4687;DHT22;2357;47.316;-1.348;2023-06-22T02:01:52;21.90;99.90
4687;DHT22;2357;47.316;-1.348;2023-06-22T02:04:27;21.90;99.90
4687;DHT22;2357;47.316;-1.348;2023-06-22T02:06:57;21.70;99.90
4687;DHT22;2357;47.316;-1.348;2023-06-22T02:09:25;21.70;99.90
4687;DHT22;2357;47.316;-1.348;2023-06-22T02:11:55;21.80;99.90
4687;DHT22;2357;47.316;-1.348;2023-06-22T02:14:22;21.80;99.90
4687;DHT22;2357;47.316;-1.348;2023-06-22T02:16:50;21.80;99.90
4687;DHT22;2357;47.316;-1.348;2023-06-22T02:19:16;21.70;99.90
4687;DHT22;2357;47.316;-1.348;2023-06-22T02:21:44;21.70;99.90
4687;DHT22;2357;47.316;-1.348;2023-06-22T02:24:10;21.80;99.90
4687;DHT22;2357;47.316;-1.348;2023-06-22T02:26:36;21.70;99.90
4687;DHT22;2357;47.316;-1.348;2023-06-22T02:29:04;21.70;99.90
4687;DHT22;2357;47.316;-1.348;2023-06-22T02:31:29;21.70;99.90
4687;DHT22;2357;47.316;-1.348;2023-06-22T02:33:59;21.70;99.90
4687;DHT22;2357;47.316;-1.348;2023-06-22T02:36:25;21.60;99.90
4687;DHT22;2357;47.316;-1.348;2023-06-22T02:38:52;21.50;99.90
4687;DHT22;2357;47.316;-1.348;2023-06-22T02:41:18;21.50;99.90
4687;DHT22;2357;47.316;-1.348;2023-06-22T02:43:47;21.50;99.90
4687;DHT22;2357;47.316;-1.348;2023-06-22T02:46:13;21.40;99.90
4687;DHT22;2357;47.316;-1.348;2023-06-22T02:48:40;21.40;99.90
4687;DHT22;2357;47.316;-1.348;2023-06-22T02:51:06;21.40;99.90
4687;DHT22;2357;47.316;-1.348;2023-06-22T02:53:32;21.40;99.90
4687;DHT22;2357;47.316;-1.348;2023-06-22T02:55:57;21.30;99.90
4687;DHT22;2357;47.316;-1.348;2023-06-22T02:58:24;21.40;99.90
4687;DHT22;2357;47.316;-1.348;2023-06-22T03:00:50;21.30;99.90
4687;DHT22;2357;47.316;-1.348;2023-06-22T03:03:19;21.30;99.90
4687;DHT22;2357;47.316;-1.348;2023-06-22T03:05:45;21.30;99.90
4687;DHT22;2357;47.316;-1.348;2023-06-22T03:08:10;21.30;99.90
4687;DHT22;2357;47.316;-1.348;2023-06-22T03:10:36;21.30;99.90
4687;DHT22;2357;47.316;-1.348;2023-06-22T03:13:02;21.30;99.90
4687;DHT22;2357;47.316;-1.348;2023-06-22T03:15:28;21.20;99.90
4687;DHT22;2357;47.316;-1.348;2023-06-22T03:17:55;21.20;99.90
4687;DHT22;2357;47.316;-1.348;2023-06-22T03:20:20;21.10;99.90
4687;DHT22;2357;47.316;-1.348;2023-06-22T03:22:46;21.20;99.90
4687;DHT22;2357;47.316;-1.348;2023-06-22T03:25:14;21.10;99.90
4687;DHT22;2357;47.316;-1.348;2023-06-22T03:27:40;21.10;99.90
4687;DHT22;2357;47.316;-1.348;2023-06-22T03:30:08;21.00;99.90
4687;DHT22;2357;47.316;-1.348;2023-06-22T03:32:34;21.00;99.90
4687;DHT22;2357;47.316;-1.348;2023-06-22T03:35:00;21.00;99.90
4687;DHT22;2357;47.316;-1.348;2023-06-22T03:37:26;20.90;99.90
4687;DHT22;2357;47.316;-1.348;2023-06-22T03:39:52;20.90;99.90
4687;DHT22;2357;47.316;-1.348;2023-06-22T03:42:19;20.80;99.90
4687;DHT22;2357;47.316;-1.348;2023-06-22T03:44:45;20.90;99.90
4687;DHT22;2357;47.316;-1.348;2023-06-22T03:47:10;20.80;99.90
4687;DHT22;2357;47.316;-1.348;2023-06-22T03:49:36;20.80;99.90
4687;DHT22;2357;47.316;-1.348;2023-06-22T03:52:03;20.70;99.90
4687;DHT22;2357;47.316;-1.348;2023-06-22T03:54:29;20.70;99.90
4687;DHT22;2357;47.316;-1.348;2023-06-22T03:56:56;20.80;99.90
4687;DHT22;2357;47.316;-1.348;2023-06-22T03:59:21;20.80;99.90
4687;DHT22;2357;47.316;-1.348;2023-06-22T04:01:47;20.70;99.90
4687;DHT22;2357;47.316;-1.348;2023-06-22T04:04:13;20.70;99.90
4687;DHT22;2357;47.316;-1.348;2023-06-22T04:06:38;20.70;99.90
4687;DHT22;2357;47.316;-1.348;2023-06-22T04:09:06;20.80;99.90
4687;DHT22;2357;47.316;-1.348;2023-06-22T04:11:31;20.80;99.90
4687;DHT22;2357;47.316;-1.348;2023-06-22T04:13:57;20.80;99.90
4687;DHT22;2357;47.316;-1.348;2023-06-22T04:16:23;20.80;99.90
4687;DHT22;2357;47.316;-1.348;2023-06-22T04:18:48;20.80;99.90
4687;DHT22;2357;47.316;-1.348;2023-06-22T04:21:14;20.80;99.90
4687;DHT22;2357;47.316;-1.348;2023-06-22T04:23:39;20.80;99.90
4687;DHT22;2357;47.316;-1.348;2023-06-22T04:26:05;20.70;99.90
4687;DHT22;2357;47.316;-1.348;2023-06-22T04:28:31;20.70;99.90
4687;DHT22;2357;47.316;-1.348;2023-06-22T04:31:03;20.50;99.90
4687;DHT22;2357;47.316;-1.348;2023-06-22T04:33:29;20.40;99.90
4687;DHT22;2357;47.316;-1.348;2023-06-22T04:35:55;20.40;99.90
4687;DHT22;2357;47.316;-1.348;2023-06-22T04:38:26;20.40;99.90
4687;DHT22;2357;47.316;-1.348;2023-06-22T04:40:52;20.40;99.90
4687;DHT22;2357;47.316;-1.348;2023-06-22T04:43:19;20.30;99.90
4687;DHT22;2357;47.316;-1.348;2023-06-22T04:45:44;20.30;99.90
4687;DHT22;2357;47.316;-1.348;2023-06-22T04:48:10;20.40;99.90
4687;DHT22;2357;47.316;-1.348;2023-06-22T04:50:38;20.30;99.90
4687;DHT22;2357;47.316;-1.348;2023-06-22T04:53:04;20.30;99.90
4687;DHT22;2357;47.316;-1.348;2023-06-22T04:55:32;20.30;99.90
4687;DHT22;2357;47.316;-1.348;2023-06-22T04:57:57;20.40;99.90
4687;DHT22;2357;47.316;-1.348;2023-06-22T05:00:30;20.30;99.90
4687;DHT22;2357;47.316;-1.348;2023-06-22T05:02:56;20.30;99.90
4687;DHT22;2357;47.316;-1.348;2023-06-22T05:05:23;20.40;99.90
4687;DHT22;2357;47.316;-1.348;2023-06-22T05:07:50;20.40;99.90
4687;DHT22;2357;47.316;-1.348;2023-06-22T05:10:19;20.40;99.90
4687;DHT22;2357;47.316;-1.348;2023-06-22T05:12:46;20.30;99.90
4687;DHT22;2357;47.316;-1.348;2023-06-22T05:15:12;20.30;99.90
4687;DHT22;2357;47.316;-1.348;2023-06-22T05:17:38;20.30;99.90
4687;DHT22;2357;47.316;-1.348;2023-06-22T05:20:09;20.40;99.90
4687;DHT22;2357;47.316;-1.348;2023-06-22T05:22:35;20.40;99.90
4687;DHT22;2357;47.316;-1.348;2023-06-22T05:25:01;20.50;99.90
4687;DHT22;2357;47.316;-1.348;2023-06-22T05:27:27;20.50;99.90
4687;DHT22;2357;47.316;-1.348;2023-06-22T05:29:52;20.60;99.90
4687;DHT22;2357;47.316;-1.348;2023-06-22T05:32:18;20.60;99.90
4687;DHT22;2357;47.316;-1.348;2023-06-22T05:34:44;20.50;99.90
4687;DHT22;2357;47.316;-1.348;2023-06-22T05:37:10;20.50;99.90
4687;DHT22;2357;47.316;-1.348;2023-06-22T05:39:36;20.50;99.90
4687;DHT22;2357;47.316;-1.348;2023-06-22T05:42:07;20.50;99.90
4687;DHT22;2357;47.316;-1.348;2023-06-22T05:44:33;20.50;99.90
4687;DHT22;2357;47.316;-1.348;2023-06-22T05:46:59;20.50;99.90
4687;DHT22;2357;47.316;-1.348;2023-06-22T05:49:25;20.60;99.90
4687;DHT22;2357;47.316;-1.348;2023-06-22T05:51:56;20.60;99.90
4687;DHT22;2357;47.316;-1.348;2023-06-22T05:54:22;20.50;99.90
4687;DHT22;2357;47.316;-1.348;2023-06-22T05:56:48;20.50;99.90
4687;DHT22;2357;47.316;-1.348;2023-06-22T05:59:13;20.50;99.90
4687;DHT22;2357;47.316;-1.348;2023-06-22T06:01:39;20.50;99.90
4687;DHT22;2357;47.316;-1.348;2023-06-22T06:04:06;20.60;99.90
4687;DHT22;2357;47.316;-1.348;2023-06-22T06:06:33;20.60;99.90
4687;DHT22;2357;47.316;-1.348;2023-06-22T06:09:03;20.60;99.90
4687;DHT22;2357;47.316;-1.348;2023-06-22T06:11:29;20.60;99.90
4687;DHT22;2357;47.316;-1.348;2023-06-22T06:13:54;20.70;99.90
4687;DHT22;2357;47.316;-1.348;2023-06-22T06:16:20;20.70;99.90
4687;DHT22;2357;47.316;-1.348;2023-06-22T06:18:46;20.70;99.90
4687;DHT22;2357;47.316;-1.348;2023-06-22T06:21:12;20.80;99.90
4687;DHT22;2357;47.316;-1.348;2023-06-22T06:23:37;20.80;99.90
4687;DHT22;2357;47.316;-1.348;2023-06-22T06:26:03;20.80;99.90
4687;DHT22;2357;47.316;-1.348;2023-06-22T06:28:32;20.90;99.90
4687;DHT22;2357;47.316;-1.348;2023-06-22T06:30:58;20.90;99.90
4687;DHT22;2357;47.316;-1.348;2023-06-22T06:33:23;21.00;99.90
4687;DHT22;2357;47.316;-1.348;2023-06-22T06:35:49;21.00;99.90
4687;DHT22;2357;47.316;-1.348;2023-06-22T06:38:15;21.00;99.90
4687;DHT22;2357;47.316;-1.348;2023-06-22T06:40:41;21.10;99.90
4687;DHT22;2357;47.316;-1.348;2023-06-22T06:43:06;21.10;99.90
4687;DHT22;2357;47.316;-1.348;2023-06-22T06:45:32;21.10;99.90
4687;DHT22;2357;47.316;-1.348;2023-06-22T06:47:59;21.10;99.90
4687;DHT22;2357;47.316;-1.348;2023-06-22T06:50:25;21.10;99.90
4687;DHT22;2357;47.316;-1.348;2023-06-22T06:52:51;21.20;99.90
4687;DHT22;2357;47.316;-1.348;2023-06-22T06:55:17;21.10;99.90
4687;DHT22;2357;47.316;-1.348;2023-06-22T06:57:44;21.20;99.90
4687;DHT22;2357;47.316;-1.348;2023-06-22T07:00:14;21.20;99.90
4687;DHT22;2357;47.316;-1.348;2023-06-22T07:02:41;21.20;99.90
4687;DHT22;2357;47.316;-1.348;2023-06-22T07:05:08;21.20;99.90
4687;DHT22;2357;47.316;-1.348;2023-06-22T07:07:34;21.20;99.90
4687;DHT22;2357;47.316;-1.348;2023-06-22T07:10:00;21.20;99.90
4687;DHT22;2357;47.316;-1.348;2023-06-22T07:12:25;21.20;99.90
4687;DHT22;2357;47.316;-1.348;2023-06-22T07:14:52;21.10;99.90
4687;DHT22;2357;47.316;-1.348;2023-06-22T07:17:18;21.20;99.90
4687;DHT22;2357;47.316;-1.348;2023-06-22T07:19:44;21.20;99.90
4687;DHT22;2357;47.316;-1.348;2023-06-22T07:22:09;21.30;99.90
4687;DHT22;2357;47.316;-1.348;2023-06-22T07:24:35;21.40;99.90
4687;DHT22;2357;47.316;-1.348;2023-06-22T07:27:01;21.50;99.90
4687;DHT22;2357;47.316;-1.348;2023-06-22T07:29:27;21.60;99.90
4687;DHT22;2357;47.316;-1.348;2023-06-22T07:31:53;21.50;99.90
4687;DHT22;2357;47.316;-1.348;2023-06-22T07:34:19;21.60;99.90
4687;DHT22;2357;47.316;-1.348;2023-06-22T07:36:45;21.70;99.90
4687;DHT22;2357;47.316;-1.348;2023-06-22T07:39:11;21.80;99.90
4687;DHT22;2357;47.316;-1.348;2023-06-22T07:41:39;21.80;99.90
4687;DHT22;2357;47.316;-1.348;2023-06-22T07:44:06;21.90;99.90
4687;DHT22;2357;47.316;-1.348;2023-06-22T07:46:32;21.90;99.90
4687;DHT22;2357;47.316;-1.348;2023-06-22T07:48:57;21.90;99.90
4687;DHT22;2357;47.316;-1.348;2023-06-22T07:51:23;21.80;99.90
4687;DHT22;2357;47.316;-1.348;2023-06-22T07:53:49;21.80;99.90
4687;DHT22;2357;47.316;-1.348;2023-06-22T07:56:15;21.70;99.90
4687;DHT22;2357;47.316;-1.348;2023-06-22T07:58:45;21.80;99.90
4687;DHT22;2357;47.316;-1.348;2023-06-22T08:01:11;21.90;99.90
4687;DHT22;2357;47.316;-1.348;2023-06-22T08:03:37;21.90;99.90
4687;DHT22;2357;47.316;-1.348;2023-06-22T08:06:03;21.90;99.90
4687;DHT22;2357;47.316;-1.348;2023-06-22T08:08:29;22.00;99.90
4687;DHT22;2357;47.316;-1.348;2023-06-22T08:10:54;22.10;99.90
4687;DHT22;2357;47.316;-1.348;2023-06-22T08:13:20;22.20;99.90
4687;DHT22;2357;47.316;-1.348;2023-06-22T08:15:45;22.30;99.90
4687;DHT22;2357;47.316;-1.348;2023-06-22T08:18:11;22.40;99.90
4687;DHT22;2357;47.316;-1.348;2023-06-22T08:20:37;22.50;99.90
4687;DHT22;2357;47.316;-1.348;2023-06-22T08:23:02;22.50;99.90
4687;DHT22;2357;47.316;-1.348;2023-06-22T08:25:35;22.60;99.90
4687;DHT22;2357;47.316;-1.348;2023-06-22T08:28:02;22.70;99.90
4687;DHT22;2357;47.316;-1.348;2023-06-22T08:30:28;22.70;99.90
4687;DHT22;2357;47.316;-1.348;2023-06-22T08:32:54;22.80;99.90
4687;DHT22;2357;47.316;-1.348;2023-06-22T08:35:22;22.90;99.90
4687;DHT22;2357;47.316;-1.348;2023-06-22T08:37:48;23.10;99.90
4687;DHT22;2357;47.316;-1.348;2023-06-22T08:40:18;23.10;99.90
4687;DHT22;2357;47.316;-1.348;2023-06-22T08:42:45;23.20;99.90
4687;DHT22;2357;47.316;-1.348;2023-06-22T08:45:11;23.30;99.90
4687;DHT22;2357;47.316;-1.348;2023-06-22T08:47:38;23.50;99.90
4687;DHT22;2357;47.316;-1.348;2023-06-22T08:50:04;23.50;99.90
4687;DHT22;2357;47.316;-1.348;2023-06-22T08:52:30;23.60;99.90
4687;DHT22;2357;47.316;-1.348;2023-06-22T08:54:56;23.60;99.90
4687;DHT22;2357;47.316;-1.348;2023-06-22T08:57:23;23.60;99.90
4687;DHT22;2357;47.316;-1.348;2023-06-22T08:59:49;23.60;99.90
4687;DHT22;2357;47.316;-1.348;2023-06-22T09:02:17;23.70;99.90
4687;DHT22;2357;47.316;-1.348;2023-06-22T09:04:43;23.70;99.90
4687;DHT22;2357;47.316;-1.348;2023-06-22T09:07:08;23.60;99.90
4687;DHT22;2357;47.316;-1.348;2023-06-22T09:09:34;23.70;99.90
4687;DHT22;2357;47.316;-1.348;2023-06-22T09:12:00;23.70;99.90
4687;DHT22;2357;47.316;-1.348;2023-06-22T09:14:25;23.80;99.90
4687;DHT22;2357;47.316;-1.348;2023-06-22T09:16:51;23.80;99.90
4687;DHT22;2357;47.316;-1.348;2023-06-22T09:19:17;23.80;99.90
4687;DHT22;2357;47.316;-1.348;2023-06-22T09:21:43;23.80;99.90
4687;DHT22;2357;47.316;-1.348;2023-06-22T09:24:09;24.10;99.90
4687;DHT22;2357;47.316;-1.348;2023-06-22T09:26:34;24.20;99.90
4687;DHT22;2357;47.316;-1.348;2023-06-22T09:29:00;24.20;99.90
4687;DHT22;2357;47.316;-1.348;2023-06-22T09:31:26;24.30;99.90
4687;DHT22;2357;47.316;-1.348;2023-06-22T09:33:55;24.30;99.90
4687;DHT22;2357;47.316;-1.348;2023-06-22T09:36:23;24.50;99.90
4687;DHT22;2357;47.316;-1.348;2023-06-22T09:38:49;24.70;99.90
4687;DHT22;2357;47.316;-1.348;2023-06-22T09:41:20;24.90;99.90
4687;DHT22;2357;47.316;-1.348;2023-06-22T09:43:46;25.00;99.90
4687;DHT22;2357;47.316;-1.348;2023-06-22T09:46:14;25.00;99.90
4687;DHT22;2357;47.316;-1.348;2023-06-22T09:48:40;25.10;99.90
4687;DHT22;2357;47.316;-1.348;2023-06-22T09:51:06;25.20;99.90
4687;DHT22;2357;47.316;-1.348;2023-06-22T09:53:32;25.30;99.90
4687;DHT22;2357;47.316;-1.348;2023-06-22T09:55:57;24.80;99.90
4687;DHT22;2357;47.316;-1.348;2023-06-22T09:58:23;24.90;99.90
4687;DHT22;2357;47.316;-1.348;2023-06-22T10:00:49;25.00;99.90
4687;DHT22;2357;47.316;-1.348;2023-06-22T10:03:14;24.80;99.90
4687;DHT22;2357;47.316;-1.348;2023-06-22T10:05:40;24.70;99.90
4687;DHT22;2357;47.316;-1.348;2023-06-22T10:08:05;24.50;99.90
4687;DHT22;2357;47.316;-1.348;2023-06-22T10:10:33;24.80;99.90
4687;DHT22;2357;47.316;-1.348;2023-06-22T10:13:07;25.20;99.90
4687;DHT22;2357;47.316;-1.348;2023-06-22T10:15:34;25.40;99.90
4687;DHT22;2357;47.316;-1.348;2023-06-22T10:18:00;25.50;99.90
4687;DHT22;2357;47.316;-1.348;2023-06-22T10:20:25;25.70;99.90
4687;DHT22;2357;47.316;-1.348;2023-06-22T10:22:51;26.00;99.90
4687;DHT22;2357;47.316;-1.348;2023-06-22T10:25:17;25.90;99.90
4687;DHT22;2357;47.316;-1.348;2023-06-22T10:27:43;26.00;99.90
4687;DHT22;2357;47.316;-1.348;2023-06-22T10:30:10;26.20;99.90
4687;DHT22;2357;47.316;-1.348;2023-06-22T10:32:38;26.00;99.90
4687;DHT22;2357;47.316;-1.348;2023-06-22T10:35:05;26.20;99.90
4687;DHT22;2357;47.316;-1.348;2023-06-22T10:37:30;25.80;99.90
4687;DHT22;2357;47.316;-1.348;2023-06-22T10:39:56;26.00;99.90
4687;DHT22;2357;47.316;-1.348;2023-06-22T10:42:22;26.30;99.90
4687;DHT22;2357;47.316;-1.348;2023-06-22T10:44:47;26.60;99.90
4687;DHT22;2357;47.316;-1.348;2023-06-22T10:47:13;26.80;99.90
4687;DHT22;2357;47.316;-1.348;2023-06-22T10:49:39;26.40;99.90
4687;DHT22;2357;47.316;-1.348;2023-06-22T10:52:08;26.10;99.90
4687;DHT22;2357;47.316;-1.348;2023-06-22T10:54:38;26.20;99.90
4687;DHT22;2357;47.316;-1.348;2023-06-22T10:57:04;26.60;99.90
4687;DHT22;2357;47.316;-1.348;2023-06-22T10:59:30;26.60;99.90
4687;DHT22;2357;47.316;-1.348;2023-06-22T11:01:56;26.70;99.90
4687;DHT22;2357;47.316;-1.348;2023-06-22T11:04:22;26.80;99.90
4687;DHT22;2357;47.316;-1.348;2023-06-22T11:06:49;26.60;99.90
4687;DHT22;2357;47.316;-1.348;2023-06-22T11:09:15;26.60;99.90
4687;DHT22;2357;47.316;-1.348;2023-06-22T11:11:50;26.90;99.90
4687;DHT22;2357;47.316;-1.348;2023-06-22T11:14:16;26.90;99.90
4687;DHT22;2357;47.316;-1.348;2023-06-22T11:16:42;26.60;99.90
4687;DHT22;2357;47.316;-1.348;2023-06-22T11:19:08;26.40;99.90
4687;DHT22;2357;47.316;-1.348;2023-06-22T11:21:33;26.30;99.90
4687;DHT22;2357;47.316;-1.348;2023-06-22T11:24:00;26.70;99.90
4687;DHT22;2357;47.316;-1.348;2023-06-22T11:26:26;27.20;99.90
4687;DHT22;2357;47.316;-1.348;2023-06-22T11:28:55;27.50;99.90
4687;DHT22;2357;47.316;-1.348;2023-06-22T11:31:21;27.80;99.90
4687;DHT22;2357;47.316;-1.348;2023-06-22T11:33:46;27.70;99.90
4687;DHT22;2357;47.316;-1.348;2023-06-22T11:36:13;27.80;99.90
4687;DHT22;2357;47.316;-1.348;2023-06-22T11:38:40;28.10;99.90
4687;DHT22;2357;47.316;-1.348;2023-06-22T11:41:09;28.20;99.90
4687;DHT22;2357;47.316;-1.348;2023-06-22T11:43:36;28.40;99.90
4687;DHT22;2357;47.316;-1.348;2023-06-22T11:46:05;28.60;99.90
4687;DHT22;2357;47.316;-1.348;2023-06-22T11:48:31;28.30;99.90
4687;DHT22;2357;47.316;-1.348;2023-06-22T11:50:58;28.30;99.90
4687;DHT22;2357;47.316;-1.348;2023-06-22T11:53:26;28.50;99.90
4687;DHT22;2357;47.316;-1.348;2023-06-22T11:55:52;28.10;99.90
4687;DHT22;2357;47.316;-1.348;2023-06-22T11:58:21;27.70;99.90
4687;DHT22;2357;47.316;-1.348;2023-06-22T12:00:47;27.60;99.90
4687;DHT22;2357;47.316;-1.348;2023-06-22T12:03:13;27.50;99.90
4687;DHT22;2357;47.316;-1.348;2023-06-22T12:05:42;27.80;99.90
4687;DHT22;2357;47.316;-1.348;2023-06-22T12:08:07;27.70;99.90
4687;DHT22;2357;47.316;-1.348;2023-06-22T12:10:33;27.80;99.90
4687;DHT22;2357;47.316;-1.348;2023-06-22T12:12:59;28.00;99.90
4687;DHT22;2357;47.316;-1.348;2023-06-22T12:15:26;28.00;99.90
4687;DHT22;2357;47.316;-1.348;2023-06-22T12:17:51;27.80;99.90
4687;DHT22;2357;47.316;-1.348;2023-06-22T12:20:17;27.60;99.90
4687;DHT22;2357;47.316;-1.348;2023-06-22T12:22:44;27.30;99.90
4687;DHT22;2357;47.316;-1.348;2023-06-22T12:25:10;27.60;99.90
4687;DHT22;2357;47.316;-1.348;2023-06-22T12:27:36;28.20;99.90
4687;DHT22;2357;47.316;-1.348;2023-06-22T12:30:02;28.30;99.90
4687;DHT22;2357;47.316;-1.348;2023-06-22T12:32:28;28.80;99.90
4687;DHT22;2357;47.316;-1.348;2023-06-22T12:34:54;28.90;99.90
4687;DHT22;2357;47.316;-1.348;2023-06-22T12:37:20;29.30;99.90
4687;DHT22;2357;47.316;-1.348;2023-06-22T12:39:46;29.70;99.90
4687;DHT22;2357;47.316;-1.348;2023-06-22T12:42:12;29.80;99.90
4687;DHT22;2357;47.316;-1.348;2023-06-22T12:44:38;29.70;99.90
4687;DHT22;2357;47.316;-1.348;2023-06-22T12:47:05;30.00;99.90
4687;DHT22;2357;47.316;-1.348;2023-06-22T12:49:31;30.30;99.90
4687;DHT22;2357;47.316;-1.348;2023-06-22T12:51:56;30.40;99.90
4687;DHT22;2357;47.316;-1.348;2023-06-22T12:54:22;30.50;99.90
4687;DHT22;2357;47.316;-1.348;2023-06-22T12:56:50;30.90;99.90
4687;DHT22;2357;47.316;-1.348;2023-06-22T12:59:15;30.30;99.90
4687;DHT22;2357;47.316;-1.348;2023-06-22T13:01:43;29.60;99.90
4687;DHT22;2357;47.316;-1.348;2023-06-22T13:04:09;29.20;99.90
4687;DHT22;2357;47.316;-1.348;2023-06-22T13:06:36;28.70;99.90
4687;DHT22;2357;47.316;-1.348;2023-06-22T13:09:02;28.30;99.90
4687;DHT22;2357;47.316;-1.348;2023-06-22T13:11:30;28.00;99.90
4687;DHT22;2357;47.316;-1.348;2023-06-22T13:13:56;28.30;99.90
4687;DHT22;2357;47.316;-1.348;2023-06-22T13:16:21;29.10;99.90
4687;DHT22;2357;47.316;-1.348;2023-06-22T13:18:47;29.70;99.90
4687;DHT22;2357;47.316;-1.348;2023-06-22T13:21:13;30.20;99.90
4687;DHT22;2357;47.316;-1.348;2023-06-22T13:23:39;30.40;99.90
4687;DHT22;2357;47.316;-1.348;2023-06-22T13:26:05;30.60;99.90
4687;DHT22;2357;47.316;-1.348;2023-06-22T13:28:31;30.90;99.90
4687;DHT22;2357;47.316;-1.348;2023-06-22T13:30:56;30.90;99.90
4687;DHT22;2357;47.316;-1.348;2023-06-22T13:33:22;30.50;99.90
4687;DHT22;2357;47.316;-1.348;2023-06-22T13:35:47;29.90;99.90
4687;DHT22;2357;47.316;-1.348;2023-06-22T13:38:13;29.40;99.90
4687;DHT22;2357;47.316;-1.348;2023-06-22T13:40:39;28.90;99.90
4687;DHT22;2357;47.316;-1.348;2023-06-22T13:43:05;28.70;99.90
4687;DHT22;2357;47.316;-1.348;2023-06-22T13:45:31;28.50;99.90
4687;DHT22;2357;47.316;-1.348;2023-06-22T13:47:57;28.30;99.90
4687;DHT22;2357;47.316;-1.348;2023-06-22T13:50:22;28.10;99.90
4687;DHT22;2357;47.316;-1.348;2023-06-22T13:52:48;28.90;99.90
4687;DHT22;2357;47.316;-1.348;2023-06-22T13:55:13;29.60;99.90
4687;DHT22;2357;47.316;-1.348;2023-06-22T13:57:40;30.20;99.90
4687;DHT22;2357;47.316;-1.348;2023-06-22T14:00:07;30.60;99.90
4687;DHT22;2357;47.316;-1.348;2023-06-22T14:02:38;31.00;99.90
4687;DHT22;2357;47.316;-1.348;2023-06-22T14:05:03;31.20;99.90
4687;DHT22;2357;47.316;-1.348;2023-06-22T14:07:29;31.40;99.90
4687;DHT22;2357;47.316;-1.348;2023-06-22T14:09:55;31.40;99.90
4687;DHT22;2357;47.316;-1.348;2023-06-22T14:12:20;31.20;99.90
4687;DHT22;2357;47.316;-1.348;2023-06-22T14:14:46;30.70;99.90
4687;DHT22;2357;47.316;-1.348;2023-06-22T14:17:12;30.00;99.90
4687;DHT22;2357;47.316;-1.348;2023-06-22T14:19:37;29.50;99.90
4687;DHT22;2357;47.316;-1.348;2023-06-22T14:22:03;29.40;99.90
4687;DHT22;2357;47.316;-1.348;2023-06-22T14:24:29;29.20;99.90
4687;DHT22;2357;47.316;-1.348;2023-06-22T14:26:55;29.50;99.90
4687;DHT22;2357;47.316;-1.348;2023-06-22T14:29:21;29.10;99.90
4687;DHT22;2357;47.316;-1.348;2023-06-22T14:31:48;29.50;99.90
4687;DHT22;2357;47.316;-1.348;2023-06-22T14:34:14;29.50;99.90
4687;DHT22;2357;47.316;-1.348;2023-06-22T14:36:40;29.40;99.90
4687;DHT22;2357;47.316;-1.348;2023-06-22T14:39:06;29.40;99.90
4687;DHT22;2357;47.316;-1.348;2023-06-22T14:41:31;29.50;99.90
4687;DHT22;2357;47.316;-1.348;2023-06-22T14:43:57;30.10;99.90
4687;DHT22;2357;47.316;-1.348;2023-06-22T14:46:23;30.20;99.90
4687;DHT22;2357;47.316;-1.348;2023-06-22T14:48:48;30.50;99.90
4687;DHT22;2357;47.316;-1.348;2023-06-22T14:51:14;30.70;99.90
4687;DHT22;2357;47.316;-1.348;2023-06-22T14:53:41;30.60;99.90
4687;DHT22;2357;47.316;-1.348;2023-06-22T14:56:07;30.40;99.90
4687;DHT22;2357;47.316;-1.348;2023-06-22T14:58:33;30.60;99.90
4687;DHT22;2357;47.316;-1.348;2023-06-22T15:01:00;30.90;99.90
4687;DHT22;2357;47.316;-1.348;2023-06-22T15:03:25;30.90;99.90
4687;DHT22;2357;47.316;-1.348;2023-06-22T15:05:54;31.20;99.90
4687;DHT22;2357;47.316;-1.348;2023-06-22T15:08:21;31.20;99.90
4687;DHT22;2357;47.316;-1.348;2023-06-22T15:10:46;31.00;99.90
4687;DHT22;2357;47.316;-1.348;2023-06-22T15:13:12;30.60;99.90
4687;DHT22;2357;47.316;-1.348;2023-06-22T15:15:38;30.50;99.90
4687;DHT22;2357;47.316;-1.348;2023-06-22T15:18:03;30.40;99.90
4687;DHT22;2357;47.316;-1.348;2023-06-22T15:20:29;30.40;99.90
4687;DHT22;2357;47.316;-1.348;2023-06-22T15:22:56;30.40;99.90
4687;DHT22;2357;47.316;-1.348;2023-06-22T15:25:22;30.10;99.90
4687;DHT22;2357;47.316;-1.348;2023-06-22T15:27:47;30.00;99.90
4687;DHT22;2357;47.316;-1.348;2023-06-22T15:30:13;30.50;99.90
4687;DHT22;2357;47.316;-1.348;2023-06-22T15:32:40;31.00;99.90
4687;DHT22;2357;47.316;-1.348;2023-06-22T15:35:08;31.00;99.90
4687;DHT22;2357;47.316;-1.348;2023-06-22T15:37:33;31.40;99.90
4687;DHT22;2357;47.316;-1.348;2023-06-22T15:39:59;31.60;99.90
4687;DHT22;2357;47.316;-1.348;2023-06-22T15:42:25;31.70;99.90
4687;DHT22;2357;47.316;-1.348;2023-06-22T15:44:50;31.60;99.90
4687;DHT22;2357;47.316;-1.348;2023-06-22T15:47:16;31.40;99.90
4687;DHT22;2357;47.316;-1.348;2023-06-22T15:49:47;31.50;99.90